首页
METAR-TAF:

METAR-TAF

机场 :

Daniel Field Airport

奥古斯塔, 喬治亞, 美国

纬度: 33-28-01N, 经度: 082-02-19W, 海拔: 128米

当前天气观测

该预报发布于40分钟前的05:53 UTC
风速5节,风向西转西北
温度 29°C
湿度 40%
气压 1018 hPa
能見度: 16.1公里
天空无云

METAR: KDNL 270553Z AUTO 30005KT 10SM CLR 29/14 A3005 RMK AO2 SLP166 T02890144 10350 20283 58003

时间: 02:33 (06:33 UTC)

预报

该预报发布于55分钟前的05:38 UTC
预报有效从27日的 06点(UTC)到 28日的 06点(UTC)
风速4节,风向西北
能見度: 10公里
少量云层高于25000英尺
从 27日的 1500点(UTC)
风速9节,风向西北,有时为17节阵风
能見度: 10公里
少量云层高于6000英尺
散云层高于25000英尺
从 28日的 0000点(UTC)
风速3节,风向西转西北
能見度: 10公里
少量云层高于25000英尺

TAF: KDNL 270538Z 2706/2806 31004KT P6SM FEW250 FM271500 32009G17KT P6SM FEW060 SCT250 FM280000 30003KT P6SM FEW250

超过4000个机场的气象观测和天气预报(METAR&TAF报告)。

可查询的气象台以黄色和红色小点在地图上表示。

将鼠标移到小点上方,可查看气象台名称。

然后点击查看天气观测和预报。

如需切换地图:点击带黑十字的绿色按钮放大地图;点击带横线的绿色按钮缩小地图;或者点击绿色箭头查看邻近地区的地图。


METAR-TAF: